sensor_id;sensor_type;location;lat;lon;timestamp;P1;durP1;ratioP1;P2;durP2;ratioP2
69188;SDS011;56302;52.322;5.926;2024-03-06T00:01:51;28.08;;;15.63;;
69188;SDS011;56302;52.322;5.926;2024-03-06T00:04:17;32.30;;;16.65;;
69188;SDS011;56302;52.322;5.926;2024-03-06T00:06:43;31.07;;;15.83;;
69188;SDS011;56302;52.322;5.926;2024-03-06T00:09:08;28.88;;;17.13;;
69188;SDS011;56302;52.322;5.926;2024-03-06T00:11:34;32.42;;;16.60;;
69188;SDS011;56302;52.322;5.926;2024-03-06T00:14:03;30.73;;;15.38;;
69188;SDS011;56302;52.322;5.926;2024-03-06T00:16:30;25.50;;;14.20;;
69188;SDS011;56302;52.322;5.926;2024-03-06T00:18:56;27.92;;;14.68;;
69188;SDS011;56302;52.322;5.926;2024-03-06T00:21:22;27.58;;;14.20;;
69188;SDS011;56302;52.322;5.926;2024-03-06T00:23:47;28.03;;;15.30;;
69188;SDS011;56302;52.322;5.926;2024-03-06T00:26:13;28.33;;;15.33;;
69188;SDS011;56302;52.322;5.926;2024-03-06T00:28:38;24.58;;;14.75;;
69188;SDS011;56302;52.322;5.926;2024-03-06T00:31:04;29.57;;;15.73;;
69188;SDS011;56302;52.322;5.926;2024-03-06T00:33:30;31.77;;;16.80;;
69188;SDS011;56302;52.322;5.926;2024-03-06T00:35:56;31.30;;;16.20;;
69188;SDS011;56302;52.322;5.926;2024-03-06T00:38:22;30.52;;;15.95;;
69188;SDS011;56302;52.322;5.926;2024-03-06T00:40:48;30.08;;;16.15;;
69188;SDS011;56302;52.322;5.926;2024-03-06T00:43:13;31.80;;;17.53;;
69188;SDS011;56302;52.322;5.926;2024-03-06T00:45:39;32.67;;;17.30;;
69188;SDS011;56302;52.322;5.926;2024-03-06T00:48:05;29.50;;;16.10;;
69188;SDS011;56302;52.322;5.926;2024-03-06T00:50:31;31.52;;;15.60;;
69188;SDS011;56302;52.322;5.926;2024-03-06T00:52:57;32.40;;;16.50;;
69188;SDS011;56302;52.322;5.926;2024-03-06T00:55:23;27.13;;;15.77;;
69188;SDS011;56302;52.322;5.926;2024-03-06T00:57:48;30.70;;;16.00;;
69188;SDS011;56302;52.322;5.926;2024-03-06T01:00:14;28.13;;;15.73;;
69188;SDS011;56302;52.322;5.926;2024-03-06T01:02:41;29.15;;;16.50;;
69188;SDS011;56302;52.322;5.926;2024-03-06T01:05:07;33.55;;;17.90;;
69188;SDS011;56302;52.322;5.926;2024-03-06T01:07:34;34.27;;;19.03;;
69188;SDS011;56302;52.322;5.926;2024-03-06T01:10:02;37.60;;;19.58;;
69188;SDS011;56302;52.322;5.926;2024-03-06T01:12:28;32.88;;;17.48;;
69188;SDS011;56302;52.322;5.926;2024-03-06T01:14:54;31.17;;;17.67;;
69188;SDS011;56302;52.322;5.926;2024-03-06T01:17:20;31.38;;;17.95;;
69188;SDS011;56302;52.322;5.926;2024-03-06T01:19:45;29.85;;;17.33;;
69188;SDS011;56302;52.322;5.926;2024-03-06T01:22:11;33.17;;;18.20;;
69188;SDS011;56302;52.322;5.926;2024-03-06T01:24:39;32.17;;;17.65;;
69188;SDS011;56302;52.322;5.926;2024-03-06T01:27:05;33.17;;;17.77;;
69188;SDS011;56302;52.322;5.926;2024-03-06T01:29:30;34.28;;;17.95;;
69188;SDS011;56302;52.322;5.926;2024-03-06T01:31:56;31.57;;;17.53;;
69188;SDS011;56302;52.322;5.926;2024-03-06T01:34:22;35.58;;;18.45;;
69188;SDS011;56302;52.322;5.926;2024-03-06T01:36:48;32.17;;;17.50;;
69188;SDS011;56302;52.322;5.926;2024-03-06T01:39:14;33.30;;;17.95;;
69188;SDS011;56302;52.322;5.926;2024-03-06T01:41:46;33.30;;;17.73;;
69188;SDS011;56302;52.322;5.926;2024-03-06T01:44:12;34.13;;;19.10;;
69188;SDS011;56302;52.322;5.926;2024-03-06T01:46:39;30.65;;;17.23;;
69188;SDS011;56302;52.322;5.926;2024-03-06T01:49:04;34.53;;;17.73;;
69188;SDS011;56302;52.322;5.926;2024-03-06T01:51:31;30.45;;;17.67;;
69188;SDS011;56302;52.322;5.926;2024-03-06T01:53:57;33.58;;;17.52;;
69188;SDS011;56302;52.322;5.926;2024-03-06T01:56:25;32.75;;;18.02;;
69188;SDS011;56302;52.322;5.926;2024-03-06T01:58:52;30.63;;;17.87;;
69188;SDS011;56302;52.322;5.926;2024-03-06T02:01:19;35.10;;;18.40;;
69188;SDS011;56302;52.322;5.926;2024-03-06T02:03:46;34.90;;;18.75;;
69188;SDS011;56302;52.322;5.926;2024-03-06T02:06:12;38.13;;;18.65;;
69188;SDS011;56302;52.322;5.926;2024-03-06T02:08:40;36.80;;;19.38;;
69188;SDS011;56302;52.322;5.926;2024-03-06T02:11:06;37.90;;;19.73;;
69188;SDS011;56302;52.322;5.926;2024-03-06T02:13:32;31.77;;;17.65;;
69188;SDS011;56302;52.322;5.926;2024-03-06T02:15:58;31.88;;;18.13;;
69188;SDS011;56302;52.322;5.926;2024-03-06T02:18:24;34.03;;;17.73;;
69188;SDS011;56302;52.322;5.926;2024-03-06T02:20:50;34.13;;;18.50;;
69188;SDS011;56302;52.322;5.926;2024-03-06T02:23:16;32.23;;;18.27;;
69188;SDS011;56302;52.322;5.926;2024-03-06T02:25:45;32.35;;;18.05;;
69188;SDS011;56302;52.322;5.926;2024-03-06T02:28:12;38.28;;;19.08;;
69188;SDS011;56302;52.322;5.926;2024-03-06T02:30:38;38.53;;;19.25;;
69188;SDS011;56302;52.322;5.926;2024-03-06T02:33:04;35.80;;;18.77;;
69188;SDS011;56302;52.322;5.926;2024-03-06T02:35:31;36.28;;;18.88;;
69188;SDS011;56302;52.322;5.926;2024-03-06T02:37:59;32.45;;;18.23;;
69188;SDS011;56302;52.322;5.926;2024-03-06T02:40:24;35.07;;;20.30;;
69188;SDS011;56302;52.322;5.926;2024-03-06T02:42:50;39.97;;;20.52;;
69188;SDS011;56302;52.322;5.926;2024-03-06T02:45:16;36.90;;;20.50;;
69188;SDS011;56302;52.322;5.926;2024-03-06T02:47:41;37.50;;;17.88;;
69188;SDS011;56302;52.322;5.926;2024-03-06T02:50:07;32.23;;;17.00;;
69188;SDS011;56302;52.322;5.926;2024-03-06T02:52:33;34.72;;;17.77;;
69188;SDS011;56302;52.322;5.926;2024-03-06T02:54:58;33.53;;;17.80;;
69188;SDS011;56302;52.322;5.926;2024-03-06T02:57:28;30.98;;;16.75;;
69188;SDS011;56302;52.322;5.926;2024-03-06T02:59:55;38.08;;;19.08;;
69188;SDS011;56302;52.322;5.926;2024-03-06T03:02:21;31.93;;;17.90;;
69188;SDS011;56302;52.322;5.926;2024-03-06T03:04:46;34.90;;;19.08;;
69188;SDS011;56302;52.322;5.926;2024-03-06T03:07:12;41.77;;;21.10;;
69188;SDS011;56302;52.322;5.926;2024-03-06T03:09:38;42.80;;;20.10;;
69188;SDS011;56302;52.322;5.926;2024-03-06T03:12:03;39.20;;;20.23;;
69188;SDS011;56302;52.322;5.926;2024-03-06T03:14:30;35.67;;;18.95;;
69188;SDS011;56302;52.322;5.926;2024-03-06T03:16:55;36.67;;;19.17;;
69188;SDS011;56302;52.322;5.926;2024-03-06T03:19:21;34.17;;;18.95;;
69188;SDS011;56302;52.322;5.926;2024-03-06T03:21:46;35.17;;;18.03;;
69188;SDS011;56302;52.322;5.926;2024-03-06T03:24:12;36.53;;;19.42;;
69188;SDS011;56302;52.322;5.926;2024-03-06T03:26:38;38.07;;;19.83;;
69188;SDS011;56302;52.322;5.926;2024-03-06T03:29:03;35.47;;;19.10;;
69188;SDS011;56302;52.322;5.926;2024-03-06T03:31:30;32.88;;;18.20;;
69188;SDS011;56302;52.322;5.926;2024-03-06T03:33:56;33.63;;;18.50;;
69188;SDS011;56302;52.322;5.926;2024-03-06T03:36:22;35.08;;;18.65;;
69188;SDS011;56302;52.322;5.926;2024-03-06T03:38:48;33.83;;;17.97;;
69188;SDS011;56302;52.322;5.926;2024-03-06T03:41:13;38.90;;;19.45;;
69188;SDS011;56302;52.322;5.926;2024-03-06T03:43:39;33.80;;;18.77;;
69188;SDS011;56302;52.322;5.926;2024-03-06T03:46:05;38.13;;;20.02;;
69188;SDS011;56302;52.322;5.926;2024-03-06T03:48:31;35.20;;;18.30;;
69188;SDS011;56302;52.322;5.926;2024-03-06T03:51:01;35.87;;;18.53;;
69188;SDS011;56302;52.322;5.926;2024-03-06T03:53:28;30.88;;;18.58;;
69188;SDS011;56302;52.322;5.926;2024-03-06T03:55:54;34.88;;;18.85;;
69188;SDS011;56302;52.322;5.926;2024-03-06T03:58:19;34.33;;;17.93;;
69188;SDS011;56302;52.322;5.926;2024-03-06T04:00:45;37.23;;;17.83;;
69188;SDS011;56302;52.322;5.926;2024-03-06T04:03:10;27.95;;;16.38;;
69188;SDS011;56302;52.322;5.926;2024-03-06T04:05:36;27.97;;;15.87;;
69188;SDS011;56302;52.322;5.926;2024-03-06T04:08:02;26.98;;;15.65;;
69188;SDS011;56302;52.322;5.926;2024-03-06T04:10:27;25.05;;;15.13;;
69188;SDS011;56302;52.322;5.926;2024-03-06T04:12:53;30.17;;;16.17;;
69188;SDS011;56302;52.322;5.926;2024-03-06T04:15:19;30.83;;;16.48;;
69188;SDS011;56302;52.322;5.926;2024-03-06T04:17:45;31.60;;;16.85;;
69188;SDS011;56302;52.322;5.926;2024-03-06T04:20:11;27.10;;;15.43;;
69188;SDS011;56302;52.322;5.926;2024-03-06T04:22:37;27.98;;;14.52;;
69188;SDS011;56302;52.322;5.926;2024-03-06T04:25:04;29.20;;;14.97;;
69188;SDS011;56302;52.322;5.926;2024-03-06T04:27:30;59.25;;;15.65;;
69188;SDS011;56302;52.322;5.926;2024-03-06T04:29:56;32.33;;;14.52;;
69188;SDS011;56302;52.322;5.926;2024-03-06T04:32:21;113.90;;;16.73;;
69188;SDS011;56302;52.322;5.926;2024-03-06T04:34:47;37.40;;;12.95;;
69188;SDS011;56302;52.322;5.926;2024-03-06T04:37:12;47.30;;;14.70;;
69188;SDS011;56302;52.322;5.926;2024-03-06T04:39:38;135.32;;;16.40;;
69188;SDS011;56302;52.322;5.926;2024-03-06T04:42:04;133.10;;;14.43;;
69188;SDS011;56302;52.322;5.926;2024-03-06T04:44:33;146.73;;;16.38;;
69188;SDS011;56302;52.322;5.926;2024-03-06T04:46:59;146.88;;;14.68;;
69188;SDS011;56302;52.322;5.926;2024-03-06T04:49:25;164.83;;;15.27;;
69188;SDS011;56302;52.322;5.926;2024-03-06T04:51:51;131.05;;;14.68;;
69188;SDS011;56302;52.322;5.926;2024-03-06T04:54:16;100.83;;;13.80;;
69188;SDS011;56302;52.322;5.926;2024-03-06T04:56:42;90.22;;;13.00;;
69188;SDS011;56302;52.322;5.926;2024-03-06T04:59:07;61.47;;;12.13;;
69188;SDS011;56302;52.322;5.926;2024-03-06T05:01:33;81.47;;;12.77;;
69188;SDS011;56302;52.322;5.926;2024-03-06T05:03:58;37.47;;;13.43;;
69188;SDS011;56302;52.322;5.926;2024-03-06T05:06:24;18.90;;;11.90;;
69188;SDS011;56302;52.322;5.926;2024-03-06T05:08:50;19.60;;;12.27;;
69188;SDS011;56302;52.322;5.926;2024-03-06T05:11:15;19.48;;;11.73;;
69188;SDS011;56302;52.322;5.926;2024-03-06T05:13:41;25.17;;;13.13;;
69188;SDS011;56302;52.322;5.926;2024-03-06T05:16:06;22.27;;;13.20;;
69188;SDS011;56302;52.322;5.926;2024-03-06T05:18:34;84.80;;;16.92;;
69188;SDS011;56302;52.322;5.926;2024-03-06T05:21:00;26.33;;;13.60;;
69188;SDS011;56302;52.322;5.926;2024-03-06T05:23:26;37.00;;;13.60;;
69188;SDS011;56302;52.322;5.926;2024-03-06T05:25:52;34.83;;;14.30;;
69188;SDS011;56302;52.322;5.926;2024-03-06T05:28:17;63.03;;;14.27;;
69188;SDS011;56302;52.322;5.926;2024-03-06T05:30:43;47.73;;;14.43;;
69188;SDS011;56302;52.322;5.926;2024-03-06T05:33:08;55.40;;;13.23;;
69188;SDS011;56302;52.322;5.926;2024-03-06T05:35:34;19.83;;;12.77;;
69188;SDS011;56302;52.322;5.926;2024-03-06T05:37:59;34.27;;;13.13;;
69188;SDS011;56302;52.322;5.926;2024-03-06T05:40:25;52.05;;;13.70;;
69188;SDS011;56302;52.322;5.926;2024-03-06T05:42:51;70.43;;;12.00;;
69188;SDS011;56302;52.322;5.926;2024-03-06T05:45:16;25.90;;;13.50;;
69188;SDS011;56302;52.322;5.926;2024-03-06T05:47:42;22.95;;;11.25;;
69188;SDS011;56302;52.322;5.926;2024-03-06T05:50:08;18.70;;;11.32;;
69188;SDS011;56302;52.322;5.926;2024-03-06T05:52:35;31.50;;;11.60;;
69188;SDS011;56302;52.322;5.926;2024-03-06T05:55:01;52.15;;;11.63;;
69188;SDS011;56302;52.322;5.926;2024-03-06T05:57:27;69.43;;;12.10;;
69188;SDS011;56302;52.322;5.926;2024-03-06T05:59:53;23.73;;;11.90;;
69188;SDS011;56302;52.322;5.926;2024-03-06T06:02:18;19.40;;;12.00;;
69188;SDS011;56302;52.322;5.926;2024-03-06T06:04:47;20.77;;;12.73;;
69188;SDS011;56302;52.322;5.926;2024-03-06T06:07:13;21.15;;;11.35;;
69188;SDS011;56302;52.322;5.926;2024-03-06T06:09:38;27.10;;;12.60;;
69188;SDS011;56302;52.322;5.926;2024-03-06T06:12:04;27.67;;;12.77;;
69188;SDS011;56302;52.322;5.926;2024-03-06T06:14:29;77.97;;;14.27;;
69188;SDS011;56302;52.322;5.926;2024-03-06T06:16:58;125.37;;;14.97;;
69188;SDS011;56302;52.322;5.926;2024-03-06T06:19:24;98.85;;;14.80;;
69188;SDS011;56302;52.322;5.926;2024-03-06T06:21:51;140.35;;;15.75;;
69188;SDS011;56302;52.322;5.926;2024-03-06T06:24:19;75.55;;;14.70;;
69188;SDS011;56302;52.322;5.926;2024-03-06T06:26:45;63.57;;;17.50;;
69188;SDS011;56302;52.322;5.926;2024-03-06T06:29:10;54.25;;;15.10;;
69188;SDS011;56302;52.322;5.926;2024-03-06T06:31:36;73.70;;;16.40;;
69188;SDS011;56302;52.322;5.926;2024-03-06T06:34:01;95.53;;;15.65;;
69188;SDS011;56302;52.322;5.926;2024-03-06T06:36:27;201.52;;;19.90;;
69188;SDS011;56302;52.322;5.926;2024-03-06T06:38:53;179.67;;;18.53;;
69188;SDS011;56302;52.322;5.926;2024-03-06T06:41:20;200.07;;;20.88;;
69188;SDS011;56302;52.322;5.926;2024-03-06T06:43:45;140.15;;;18.58;;
69188;SDS011;56302;52.322;5.926;2024-03-06T06:46:11;157.80;;;21.43;;
69188;SDS011;56302;52.322;5.926;2024-03-06T06:48:37;186.90;;;22.17;;
69188;SDS011;56302;52.322;5.926;2024-03-06T06:51:03;92.30;;;21.20;;
69188;SDS011;56302;52.322;5.926;2024-03-06T06:53:29;249.50;;;24.20;;
69188;SDS011;56302;52.322;5.926;2024-03-06T06:55:55;197.00;;;22.23;;
69188;SDS011;56302;52.322;5.926;2024-03-06T06:58:21;179.27;;;23.33;;
69188;SDS011;56302;52.322;5.926;2024-03-06T07:00:47;421.20;;;33.72;;
69188;SDS011;56302;52.322;5.926;2024-03-06T07:03:13;166.13;;;25.38;;
69188;SDS011;56302;52.322;5.926;2024-03-06T07:05:39;122.15;;;25.45;;
69188;SDS011;56302;52.322;5.926;2024-03-06T07:08:06;163.80;;;22.10;;
69188;SDS011;56302;52.322;5.926;2024-03-06T07:10:32;204.65;;;24.80;;
69188;SDS011;56302;52.322;5.926;2024-03-06T07:12:58;238.98;;;24.40;;
69188;SDS011;56302;52.322;5.926;2024-03-06T07:15:24;176.03;;;20.63;;
69188;SDS011;56302;52.322;5.926;2024-03-06T07:17:50;365.80;;;29.60;;
69188;SDS011;56302;52.322;5.926;2024-03-06T07:20:15;302.73;;;26.97;;
69188;SDS011;56302;52.322;5.926;2024-03-06T07:22:41;249.45;;;24.65;;
69188;SDS011;56302;52.322;5.926;2024-03-06T07:25:07;249.45;;;26.08;;
69188;SDS011;56302;52.322;5.926;2024-03-06T07:27:34;57.35;;;22.38;;
69188;SDS011;56302;52.322;5.926;2024-03-06T07:30:00;60.15;;;22.45;;
69188;SDS011;56302;52.322;5.926;2024-03-06T07:32:26;148.13;;;25.30;;
69188;SDS011;56302;52.322;5.926;2024-03-06T07:34:52;227.10;;;27.17;;
69188;SDS011;56302;52.322;5.926;2024-03-06T07:37:17;56.60;;;21.80;;
69188;SDS011;56302;52.322;5.926;2024-03-06T07:39:44;122.53;;;24.63;;
69188;SDS011;56302;52.322;5.926;2024-03-06T07:42:10;111.32;;;20.75;;
69188;SDS011;56302;52.322;5.926;2024-03-06T07:44:36;350.20;;;32.20;;
69188;SDS011;56302;52.322;5.926;2024-03-06T07:47:02;174.30;;;21.08;;
69188;SDS011;56302;52.322;5.926;2024-03-06T07:49:28;106.03;;;19.10;;
69188;SDS011;56302;52.322;5.926;2024-03-06T07:51:54;60.03;;;15.75;;
69188;SDS011;56302;52.322;5.926;2024-03-06T07:54:19;209.23;;;25.60;;
69188;SDS011;56302;52.322;5.926;2024-03-06T07:56:45;98.05;;;23.23;;
69188;SDS011;56302;52.322;5.926;2024-03-06T07:59:12;60.35;;;22.52;;
69188;SDS011;56302;52.322;5.926;2024-03-06T08:01:38;82.10;;;16.73;;
69188;SDS011;56302;52.322;5.926;2024-03-06T08:04:03;66.50;;;18.87;;
69188;SDS011;56302;52.322;5.926;2024-03-06T08:06:29;78.35;;;20.63;;
69188;SDS011;56302;52.322;5.926;2024-03-06T08:08:58;80.18;;;22.45;;
69188;SDS011;56302;52.322;5.926;2024-03-06T08:11:24;81.47;;;15.90;;
69188;SDS011;56302;52.322;5.926;2024-03-06T08:13:50;78.00;;;17.42;;
69188;SDS011;56302;52.322;5.926;2024-03-06T08:16:21;66.57;;;11.90;;
69188;SDS011;56302;52.322;5.926;2024-03-06T08:18:47;159.77;;;20.50;;
69188;SDS011;56302;52.322;5.926;2024-03-06T08:21:13;58.65;;;20.23;;
69188;SDS011;56302;52.322;5.926;2024-03-06T08:23:38;192.17;;;24.27;;
69188;SDS011;56302;52.322;5.926;2024-03-06T08:26:04;151.13;;;21.00;;
69188;SDS011;56302;52.322;5.926;2024-03-06T08:28:29;146.00;;;22.13;;
69188;SDS011;56302;52.322;5.926;2024-03-06T08:30:55;181.70;;;21.50;;
69188;SDS011;56302;52.322;5.926;2024-03-06T08:33:21;236.30;;;26.05;;
69188;SDS011;56302;52.322;5.926;2024-03-06T08:35:47;184.43;;;24.90;;
69188;SDS011;56302;52.322;5.926;2024-03-06T08:38:13;173.50;;;21.73;;
69188;SDS011;56302;52.322;5.926;2024-03-06T08:40:39;199.20;;;23.17;;
69188;SDS011;56302;52.322;5.926;2024-03-06T08:43:06;164.43;;;24.33;;
69188;SDS011;56302;52.322;5.926;2024-03-06T08:45:34;173.93;;;24.47;;
69188;SDS011;56302;52.322;5.926;2024-03-06T08:47:59;116.38;;;23.60;;
69188;SDS011;56302;52.322;5.926;2024-03-06T08:50:25;75.37;;;20.77;;
69188;SDS011;56302;52.322;5.926;2024-03-06T08:52:51;84.65;;;23.08;;
69188;SDS011;56302;52.322;5.926;2024-03-06T08:55:16;80.20;;;21.13;;
69188;SDS011;56302;52.322;5.926;2024-03-06T08:57:42;74.07;;;20.95;;
69188;SDS011;56302;52.322;5.926;2024-03-06T09:00:08;105.80;;;23.23;;
69188;SDS011;56302;52.322;5.926;2024-03-06T09:02:36;96.10;;;25.75;;
69188;SDS011;56302;52.322;5.926;2024-03-06T09:05:05;70.75;;;22.40;;
69188;SDS011;56302;52.322;5.926;2024-03-06T09:07:35;64.22;;;19.58;;
69188;SDS011;56302;52.322;5.926;2024-03-06T09:10:06;76.87;;;22.27;;
69188;SDS011;56302;52.322;5.926;2024-03-06T09:12:33;58.25;;;15.98;;
69188;SDS011;56302;52.322;5.926;2024-03-06T09:14:59;64.03;;;22.25;;
69188;SDS011;56302;52.322;5.926;2024-03-06T09:17:25;60.15;;;21.02;;
69188;SDS011;56302;52.322;5.926;2024-03-06T09:19:51;29.05;;;11.82;;
69188;SDS011;56302;52.322;5.926;2024-03-06T09:22:17;39.60;;;16.03;;
69188;SDS011;56302;52.322;5.926;2024-03-06T09:24:42;69.77;;;21.40;;
69188;SDS011;56302;52.322;5.926;2024-03-06T09:27:08;55.17;;;21.02;;
69188;SDS011;56302;52.322;5.926;2024-03-06T09:29:34;60.95;;;21.10;;
69188;SDS011;56302;52.322;5.926;2024-03-06T09:31:59;54.90;;;21.63;;
69188;SDS011;56302;52.322;5.926;2024-03-06T09:34:25;59.78;;;22.80;;
69188;SDS011;56302;52.322;5.926;2024-03-06T09:36:51;69.00;;;23.93;;
69188;SDS011;56302;52.322;5.926;2024-03-06T09:39:17;49.60;;;17.87;;
69188;SDS011;56302;52.322;5.926;2024-03-06T09:41:48;66.65;;;23.00;;
69188;SDS011;56302;52.322;5.926;2024-03-06T09:44:15;66.65;;;24.65;;
69188;SDS011;56302;52.322;5.926;2024-03-06T09:46:45;61.65;;;21.58;;
69188;SDS011;56302;52.322;5.926;2024-03-06T09:49:12;65.00;;;24.75;;
69188;SDS011;56302;52.322;5.926;2024-03-06T09:51:40;42.63;;;18.70;;
69188;SDS011;56302;52.322;5.926;2024-03-06T09:54:10;46.70;;;19.90;;
69188;SDS011;56302;52.322;5.926;2024-03-06T09:56:40;52.42;;;22.42;;
69188;SDS011;56302;52.322;5.926;2024-03-06T09:59:07;64.57;;;24.98;;
69188;SDS011;56302;52.322;5.926;2024-03-06T10:01:33;65.20;;;26.47;;
69188;SDS011;56302;52.322;5.926;2024-03-06T10:04:18;52.65;;;21.38;;
69188;SDS011;56302;52.322;5.926;2024-03-06T10:06:45;49.90;;;21.77;;
69188;SDS011;56302;52.322;5.926;2024-03-06T10:09:11;47.33;;;20.75;;
69188;SDS011;56302;52.322;5.926;2024-03-06T10:11:40;55.13;;;22.70;;
69188;SDS011;56302;52.322;5.926;2024-03-06T10:14:07;50.60;;;24.45;;
69188;SDS011;56302;52.322;5.926;2024-03-06T10:16:33;55.28;;;23.88;;
69188;SDS011;56302;52.322;5.926;2024-03-06T10:19:16;51.37;;;21.30;;
69188;SDS011;56302;52.322;5.926;2024-03-06T10:21:43;52.13;;;20.98;;
69188;SDS011;56302;52.322;5.926;2024-03-06T10:24:11;49.50;;;22.58;;
69188;SDS011;56302;52.322;5.926;2024-03-06T10:26:37;34.60;;;16.55;;
69188;SDS011;56302;52.322;5.926;2024-03-06T10:29:03;51.67;;;24.23;;
69188;SDS011;56302;52.322;5.926;2024-03-06T10:31:29;50.92;;;22.88;;
69188;SDS011;56302;52.322;5.926;2024-03-06T10:33:54;48.43;;;21.83;;
69188;SDS011;56302;52.322;5.926;2024-03-06T10:36:20;51.87;;;23.20;;
69188;SDS011;56302;52.322;5.926;2024-03-06T10:38:45;50.70;;;21.58;;
69188;SDS011;56302;52.322;5.926;2024-03-06T10:41:15;43.63;;;21.43;;
69188;SDS011;56302;52.322;5.926;2024-03-06T10:43:47;49.83;;;21.88;;
69188;SDS011;56302;52.322;5.926;2024-03-06T10:46:15;39.63;;;19.33;;
69188;SDS011;56302;52.322;5.926;2024-03-06T10:48:44;40.80;;;18.67;;
69188;SDS011;56302;52.322;5.926;2024-03-06T10:51:12;42.05;;;20.58;;
69188;SDS011;56302;52.322;5.926;2024-03-06T10:53:40;46.13;;;21.80;;
69188;SDS011;56302;52.322;5.926;2024-03-06T10:56:08;45.97;;;21.75;;
69188;SDS011;56302;52.322;5.926;2024-03-06T10:58:34;46.88;;;21.50;;
69188;SDS011;56302;52.322;5.926;2024-03-06T11:01:00;46.50;;;21.95;;
69188;SDS011;56302;52.322;5.926;2024-03-06T11:03:28;44.70;;;20.90;;
69188;SDS011;56302;52.322;5.926;2024-03-06T11:05:56;39.97;;;20.15;;
69188;SDS011;56302;52.322;5.926;2024-03-06T11:08:21;41.93;;;20.50;;
69188;SDS011;56302;52.322;5.926;2024-03-06T11:10:48;41.28;;;19.90;;
69188;SDS011;56302;52.322;5.926;2024-03-06T11:15:45;35.13;;;17.30;;
69188;SDS011;56302;52.322;5.926;2024-03-06T11:18:54;42.78;;;21.08;;
69188;SDS011;56302;52.322;5.926;2024-03-06T11:23:32;40.17;;;20.23;;
69188;SDS011;56302;52.322;5.926;2024-03-06T11:26:05;41.92;;;21.25;;
69188;SDS011;56302;52.322;5.926;2024-03-06T11:28:32;39.10;;;20.47;;
69188;SDS011;56302;52.322;5.926;2024-03-06T11:31:00;44.28;;;20.55;;
69188;SDS011;56302;52.322;5.926;2024-03-06T11:33:47;35.45;;;18.27;;
69188;SDS011;56302;52.322;5.926;2024-03-06T11:38:51;36.78;;;17.67;;
69188;SDS011;56302;52.322;5.926;2024-03-06T11:41:48;42.97;;;19.90;;
69188;SDS011;56302;52.322;5.926;2024-03-06T11:44:16;42.90;;;21.88;;
69188;SDS011;56302;52.322;5.926;2024-03-06T11:46:46;38.28;;;18.60;;
69188;SDS011;56302;52.322;5.926;2024-03-06T11:49:23;39.83;;;19.65;;
69188;SDS011;56302;52.322;5.926;2024-03-06T11:51:50;36.20;;;17.15;;
69188;SDS011;56302;52.322;5.926;2024-03-06T11:54:36;39.53;;;19.50;;
69188;SDS011;56302;52.322;5.926;2024-03-06T11:57:03;40.65;;;18.80;;
69188;SDS011;56302;52.322;5.926;2024-03-06T11:59:30;36.05;;;18.63;;
69188;SDS011;56302;52.322;5.926;2024-03-06T12:01:58;34.47;;;17.67;;
69188;SDS011;56302;52.322;5.926;2024-03-06T12:04:27;36.33;;;18.58;;
69188;SDS011;56302;52.322;5.926;2024-03-06T12:06:56;37.27;;;18.77;;
69188;SDS011;56302;52.322;5.926;2024-03-06T12:09:23;37.90;;;18.73;;
69188;SDS011;56302;52.322;5.926;2024-03-06T12:11:48;35.65;;;17.77;;
69188;SDS011;56302;52.322;5.926;2024-03-06T12:14:17;34.80;;;16.73;;
69188;SDS011;56302;52.322;5.926;2024-03-06T12:16:54;35.00;;;18.23;;
69188;SDS011;56302;52.322;5.926;2024-03-06T12:19:21;34.88;;;17.17;;
69188;SDS011;56302;52.322;5.926;2024-03-06T12:21:47;33.83;;;17.13;;
69188;SDS011;56302;52.322;5.926;2024-03-06T12:24:15;37.58;;;18.63;;
69188;SDS011;56302;52.322;5.926;2024-03-06T12:26:43;34.78;;;17.85;;
69188;SDS011;56302;52.322;5.926;2024-03-06T12:29:10;35.00;;;16.97;;
69188;SDS011;56302;52.322;5.926;2024-03-06T12:31:37;36.08;;;17.73;;
69188;SDS011;56302;52.322;5.926;2024-03-06T12:34:04;31.17;;;16.58;;
69188;SDS011;56302;52.322;5.926;2024-03-06T12:36:31;29.05;;;15.02;;
69188;SDS011;56302;52.322;5.926;2024-03-06T12:39:01;31.27;;;16.47;;
69188;SDS011;56302;52.322;5.926;2024-03-06T12:41:28;29.75;;;14.65;;
69188;SDS011;56302;52.322;5.926;2024-03-06T12:43:55;24.48;;;13.93;;
69188;SDS011;56302;52.322;5.926;2024-03-06T12:46:22;28.17;;;14.45;;
69188;SDS011;56302;52.322;5.926;2024-03-06T12:48:49;27.63;;;14.32;;
69188;SDS011;56302;52.322;5.926;2024-03-06T12:51:15;25.63;;;14.33;;
69188;SDS011;56302;52.322;5.926;2024-03-06T12:53:40;26.48;;;13.70;;
69188;SDS011;56302;52.322;5.926;2024-03-06T12:56:06;26.63;;;13.93;;
69188;SDS011;56302;52.322;5.926;2024-03-06T12:58:32;25.70;;;14.77;;
69188;SDS011;56302;52.322;5.926;2024-03-06T13:01:00;26.90;;;14.73;;
69188;SDS011;56302;52.322;5.926;2024-03-06T13:03:26;24.52;;;12.15;;
69188;SDS011;56302;52.322;5.926;2024-03-06T13:05:52;23.00;;;12.77;;
69188;SDS011;56302;52.322;5.926;2024-03-06T13:08:18;29.13;;;15.18;;
69188;SDS011;56302;52.322;5.926;2024-03-06T13:10:44;26.80;;;15.48;;
69188;SDS011;56302;52.322;5.926;2024-03-06T13:13:10;28.30;;;13.77;;
69188;SDS011;56302;52.322;5.926;2024-03-06T13:15:35;22.08;;;12.05;;
69188;SDS011;56302;52.322;5.926;2024-03-06T13:18:04;26.70;;;14.43;;
69188;SDS011;56302;52.322;5.926;2024-03-06T13:20:30;26.73;;;14.83;;
69188;SDS011;56302;52.322;5.926;2024-03-06T13:22:56;26.45;;;14.68;;
69188;SDS011;56302;52.322;5.926;2024-03-06T13:25:22;30.30;;;14.68;;
69188;SDS011;56302;52.322;5.926;2024-03-06T13:27:48;24.60;;;13.27;;
69188;SDS011;56302;52.322;5.926;2024-03-06T13:30:14;23.15;;;13.32;;
69188;SDS011;56302;52.322;5.926;2024-03-06T13:32:40;24.63;;;12.75;;
69188;SDS011;56302;52.322;5.926;2024-03-06T13:35:07;25.67;;;13.25;;
69188;SDS011;56302;52.322;5.926;2024-03-06T13:37:37;23.13;;;12.97;;
69188;SDS011;56302;52.322;5.926;2024-03-06T13:40:03;24.77;;;14.32;;
69188;SDS011;56302;52.322;5.926;2024-03-06T13:42:32;25.40;;;14.00;;
69188;SDS011;56302;52.322;5.926;2024-03-06T13:44:57;26.38;;;13.70;;
69188;SDS011;56302;52.322;5.926;2024-03-06T13:47:23;27.77;;;14.30;;
69188;SDS011;56302;52.322;5.926;2024-03-06T13:49:49;27.33;;;13.43;;
69188;SDS011;56302;52.322;5.926;2024-03-06T13:52:14;28.27;;;15.30;;
69188;SDS011;56302;52.322;5.926;2024-03-06T13:54:44;28.85;;;15.93;;
69188;SDS011;56302;52.322;5.926;2024-03-06T13:57:11;26.67;;;14.32;;
69188;SDS011;56302;52.322;5.926;2024-03-06T13:59:37;23.60;;;12.77;;
69188;SDS011;56302;52.322;5.926;2024-03-06T14:02:03;29.95;;;15.45;;
69188;SDS011;56302;52.322;5.926;2024-03-06T14:04:29;28.02;;;15.48;;
69188;SDS011;56302;52.322;5.926;2024-03-06T14:06:55;29.48;;;16.17;;
69188;SDS011;56302;52.322;5.926;2024-03-06T14:09:24;27.73;;;14.25;;
69188;SDS011;56302;52.322;5.926;2024-03-06T14:11:50;25.20;;;13.75;;
69188;SDS011;56302;52.322;5.926;2024-03-06T14:14:17;21.73;;;12.43;;
69188;SDS011;56302;52.322;5.926;2024-03-06T14:16:43;25.40;;;14.07;;
69188;SDS011;56302;52.322;5.926;2024-03-06T14:19:09;25.80;;;13.30;;
69188;SDS011;56302;52.322;5.926;2024-03-06T14:21:36;24.38;;;13.45;;
69188;SDS011;56302;52.322;5.926;2024-03-06T14:24:02;26.83;;;14.48;;